createdAt,value
2017-10-29T00:01:23.900Z,98823.88
2017-10-29T00:03:49.703Z,98825.11
2017-10-29T00:06:15.475Z,98810.91
2017-10-29T00:08:41.251Z,98795.73
2017-10-29T00:11:07.001Z,98790.13
2017-10-29T00:13:32.764Z,98773.06
2017-10-29T00:15:58.529Z,98766.53
2017-10-29T00:18:24.271Z,98751.52
2017-10-29T00:20:50.040Z,98758.23
2017-10-29T00:23:15.779Z,98738.14
2017-10-29T00:25:41.540Z,98740.56
2017-10-29T00:28:07.307Z,98734.27
2017-10-29T00:30:33.088Z,98719.08
2017-10-29T00:32:58.883Z,98707.20
2017-10-29T00:35:24.632Z,98675.83
2017-10-29T00:37:50.400Z,98677.52
2017-10-29T00:40:16.796Z,98673.53
2017-10-29T00:42:42.597Z,98670.16
2017-10-29T00:45:08.474Z,98661.86
2017-10-29T00:47:34.217Z,98642.87
2017-10-29T00:50:00.105Z,98633.49
2017-10-29T00:52:25.864Z,98629.49
2017-10-29T00:54:51.652Z,98611.13
2017-10-29T00:57:17.409Z,98611.45
2017-10-29T00:59:43.169Z,98605.52
2017-10-29T01:02:08.929Z,98600.55
2017-10-29T01:04:34.724Z,98588.88
2017-10-29T01:07:00.487Z,98565.69
2017-10-29T01:09:26.253Z,98558.97
2017-10-29T01:11:52.012Z,98548.64
2017-10-29T01:14:17.817Z,98544.34
2017-10-29T01:16:43.565Z,98531.16
2017-10-29T01:19:09.319Z,98518.20
2017-10-29T01:21:35.085Z,98497.55
2017-10-29T01:24:00.841Z,98502.98
2017-10-29T01:26:26.596Z,98462.55
2017-10-29T01:28:52.357Z,98458.57
2017-10-29T01:31:18.165Z,98451.95
2017-10-29T01:33:43.926Z,98434.87
2017-10-29T01:36:09.699Z,98418.33
2017-10-29T01:38:35.478Z,98419.95
2017-10-29T01:41:02.223Z,98409.55
2017-10-29T01:43:28.024Z,98387.19
2017-10-29T01:45:53.789Z,98366.85
2017-10-29T01:48:19.553Z,98347.66
2017-10-29T01:50:45.308Z,98336.64
2017-10-29T01:53:11.092Z,98333.27
2017-10-29T01:55:36.839Z,98318.46
2017-10-29T01:58:02.670Z,98312.02
2017-10-29T02:00:28.412Z,98302.86
2017-10-29T02:02:54.163Z,98279.87
2017-10-29T02:05:20.936Z,98275.47
2017-10-29T02:07:47.704Z,98256.37
2017-10-29T02:10:13.461Z,98239.97
2017-10-29T02:12:40.179Z,98238.83
2017-10-29T02:15:06.780Z,98220.95
2017-10-29T02:17:32.588Z,98203.29
2017-10-29T02:19:59.184Z,98188.80
2017-10-29T02:22:24.950Z,98182.34
2017-10-29T02:24:51.783Z,98190.61
2017-10-29T02:27:18.173Z,98185.11
2017-10-29T02:29:44.928Z,98184.89
2017-10-29T02:32:10.681Z,98183.56
2017-10-29T02:34:36.480Z,98178.06
2017-10-29T02:37:03.254Z,98173.57
2017-10-29T02:39:29.008Z,98170.07
2017-10-29T02:41:54.760Z,98155.28
2017-10-29T02:44:20.513Z,98145.29
2017-10-29T02:46:46.267Z,98187.44
2017-10-29T02:49:12.073Z,98167.67
2017-10-29T02:51:37.835Z,98146.91
2017-10-29T02:54:03.590Z,98137.55
2017-10-29T02:56:29.342Z,98172.32
2017-10-29T02:58:55.104Z,98134.85
2017-10-29T03:01:20.849Z,98136.83
2017-10-29T03:03:46.608Z,98117.62
2017-10-29T03:06:12.808Z,98077.61
2017-10-29T03:08:38.564Z,98080.67
2017-10-29T03:11:04.323Z,98079.34
2017-10-29T03:13:30.072Z,98077.41
2017-10-29T03:15:56.739Z,98061.77
2017-10-29T03:18:22.523Z,98083.66
2017-10-29T03:20:48.265Z,98056.41
2017-10-29T03:23:14.016Z,98060.70
2017-10-29T03:25:39.777Z,98044.17
2017-10-29T03:28:05.570Z,98044.17
2017-10-29T03:30:31.341Z,98044.46
2017-10-29T03:32:57.091Z,98044.25
2017-10-29T03:35:23.637Z,98045.38
2017-10-29T03:37:49.388Z,98033.03
2017-10-29T03:40:15.146Z,98027.70
2017-10-29T03:42:40.954Z,98032.46
2017-10-29T03:45:07.736Z,98029.92
2017-10-29T03:47:33.503Z,97995.28
2017-10-29T03:50:00.379Z,98010.75
2017-10-29T03:52:26.139Z,98014.91
2017-10-29T03:54:51.944Z,98022.59
2017-10-29T03:57:17.691Z,98021.84
2017-10-29T03:59:43.432Z,97996.03
2017-10-29T04:02:09.232Z,98009.49
2017-10-29T04:04:34.980Z,98033.08
2017-10-29T04:07:00.736Z,98028.91
2017-10-29T04:09:26.490Z,98041.76
2017-10-29T04:11:52.255Z,98081.61
2017-10-29T04:14:18.015Z,98104.44
2017-10-29T04:16:43.780Z,98088.96
2017-10-29T04:19:09.578Z,98076.56
2017-10-29T04:21:35.329Z,98096.81
2017-10-29T04:24:01.086Z,98097.73
2017-10-29T04:26:26.837Z,98110.22
2017-10-29T04:28:52.595Z,98095.66
2017-10-29T04:31:18.398Z,98086.20
2017-10-29T04:33:44.200Z,98071.34
2017-10-29T04:36:09.960Z,98067.26
2017-10-29T04:38:36.739Z,98085.52
2017-10-29T04:41:02.519Z,98066.34
2017-10-29T04:43:28.288Z,98073.44
2017-10-29T04:45:54.070Z,98086.31
2017-10-29T04:48:20.648Z,98073.92
2017-10-29T04:50:46.453Z,98093.77
2017-10-29T04:53:12.207Z,98079.84
2017-10-29T04:55:37.956Z,98087.77
2017-10-29T04:58:03.699Z,98095.55
2017-10-29T05:00:30.297Z,98123.34
2017-10-29T05:02:56.043Z,98098.02
2017-10-29T05:05:22.752Z,98103.55
2017-10-29T05:07:48.492Z,98135.38
2017-10-29T05:10:14.252Z,98128.95
2017-10-29T05:12:40.036Z,98139.94
2017-10-29T05:15:05.795Z,98135.51
2017-10-29T05:17:32.567Z,98127.55
2017-10-29T05:19:58.339Z,98117.04
2017-10-29T05:22:25.219Z,98111.31
2017-10-29T05:24:50.966Z,98116.67
2017-10-29T05:27:16.765Z,98114.24
2017-10-29T05:29:42.519Z,98120.70
2017-10-29T05:32:09.215Z,98115.64
2017-10-29T05:34:35.015Z,98102.41
2017-10-29T05:37:01.425Z,98109.04
2017-10-29T05:39:27.171Z,98120.33
2017-10-29T05:41:53.895Z,98120.39
2017-10-29T05:44:19.662Z,98126.28
2017-10-29T05:46:45.466Z,98112.92
2017-10-29T05:49:12.162Z,98114.15
2017-10-29T05:51:37.913Z,98127.13
2017-10-29T05:54:03.680Z,98152.77
2017-10-29T05:56:29.431Z,98129.05
2017-10-29T05:58:55.200Z,98137.06
2017-10-29T06:01:20.947Z,98119.73
2017-10-29T06:03:47.539Z,98132.19
2017-10-29T06:06:13.292Z,98103.17
2017-10-29T06:08:39.044Z,98121.75
2017-10-29T06:11:04.794Z,98134.92
2017-10-29T06:13:30.547Z,98120.25
2017-10-29T06:15:56.290Z,98123.03
2017-10-29T06:18:23.031Z,98136.38
2017-10-29T06:20:49.806Z,98126.89
2017-10-29T06:23:15.564Z,98144.05
2017-10-29T06:25:41.327Z,98124.38
2017-10-29T06:28:07.265Z,98112.23
2017-10-29T06:30:33.083Z,98104.60
2017-10-29T06:32:58.956Z,98103.87
2017-10-29T06:35:24.716Z,98091.73
2017-10-29T06:37:50.475Z,98084.41
2017-10-29T06:40:16.760Z,98098.68
2017-10-29T06:42:43.572Z,98113.44
2017-10-29T06:45:10.457Z,98110.80
2017-10-29T06:47:36.199Z,98085.56
2017-10-29T06:50:02.036Z,98131.56
2017-10-29T06:52:27.787Z,98125.11
2017-10-29T06:54:54.417Z,98125.98
2017-10-29T06:57:20.163Z,98152.73
2017-10-29T06:59:45.963Z,98176.17
2017-10-29T07:02:12.565Z,98164.20
2017-10-29T07:04:38.318Z,98184.23
2017-10-29T07:07:04.071Z,98194.89
2017-10-29T07:09:29.816Z,98207.95
2017-10-29T07:11:55.564Z,98197.84
2017-10-29T07:14:21.319Z,98199.47
2017-10-29T07:16:47.121Z,98202.82
2017-10-29T07:19:13.705Z,98206.80
2017-10-29T07:21:39.459Z,98223.95
2017-10-29T07:24:05.211Z,98233.06
2017-10-29T07:26:31.948Z,98232.04
2017-10-29T07:28:57.768Z,98217.16
2017-10-29T07:31:23.592Z,98242.47
2017-10-29T07:33:49.344Z,98249.41
2017-10-29T07:36:15.087Z,98263.91
2017-10-29T07:38:41.629Z,98253.47
2017-10-29T07:41:08.324Z,98255.13
2017-10-29T07:43:34.088Z,98233.91
2017-10-29T07:45:59.893Z,98241.25
2017-10-29T07:48:25.664Z,98232.06
2017-10-29T07:50:51.424Z,98239.30
2017-10-29T07:53:18.147Z,98227.34
2017-10-29T07:55:43.912Z,98255.53
2017-10-29T07:58:09.647Z,98262.03
2017-10-29T08:00:35.387Z,98252.25
2017-10-29T08:03:01.176Z,98266.38
2017-10-29T08:05:26.924Z,98275.96
2017-10-29T08:07:53.620Z,98277.80
2017-10-29T08:10:19.374Z,98295.07
2017-10-29T08:12:45.127Z,98293.95
2017-10-29T08:15:10.988Z,98308.84
2017-10-29T08:17:36.741Z,98313.00
2017-10-29T08:20:03.586Z,98320.29
2017-10-29T08:22:29.388Z,98350.31
2017-10-29T08:24:55.177Z,98344.27
2017-10-29T08:27:21.857Z,98353.79
2017-10-29T08:29:48.632Z,98363.59
2017-10-29T08:32:14.375Z,98368.28
2017-10-29T08:34:40.167Z,98364.72
2017-10-29T08:37:05.948Z,98398.01
2017-10-29T08:39:31.725Z,98414.07
2017-10-29T08:41:58.258Z,98407.52
2017-10-29T08:44:24.856Z,98436.45
2017-10-29T08:46:51.568Z,98439.41
2017-10-29T08:49:17.350Z,98455.23
2017-10-29T08:51:44.080Z,98449.83
2017-10-29T08:54:10.923Z,98491.81
2017-10-29T08:56:37.623Z,98515.73
2017-10-29T08:59:03.372Z,98510.63
2017-10-29T09:01:29.976Z,98557.52
2017-10-29T09:03:56.743Z,98574.27
2017-10-29T09:06:22.539Z,98571.92
2017-10-29T09:08:48.296Z,98587.62
2017-10-29T09:11:16.031Z,98600.38
2017-10-29T09:13:41.832Z,98642.66
2017-10-29T09:16:07.586Z,98639.72
2017-10-29T09:18:33.380Z,98662.84
2017-10-29T09:20:59.155Z,98676.67
2017-10-29T09:23:24.923Z,98698.39
2017-10-29T09:25:50.883Z,98701.42
2017-10-29T09:28:16.642Z,98713.25
2017-10-29T09:30:43.363Z,98745.56
2017-10-29T09:33:09.116Z,98755.20
2017-10-29T09:35:35.604Z,98771.52
2017-10-29T09:38:01.352Z,98786.57
2017-10-29T09:40:28.133Z,98820.34
2017-10-29T09:42:53.881Z,98821.09
2017-10-29T09:45:19.663Z,98827.50
2017-10-29T09:47:45.408Z,98849.33
2017-10-29T09:50:12.216Z,98868.60
2017-10-29T09:52:38.669Z,98875.99
2017-10-29T09:55:05.285Z,98900.41
2017-10-29T09:57:31.863Z,98909.95
2017-10-29T09:59:59.587Z,98924.17
2017-10-29T10:02:27.000Z,98927.95
2017-10-29T10:04:53.810Z,98950.79
2017-10-29T10:07:19.561Z,98953.67
2017-10-29T10:09:45.317Z,98981.46
2017-10-29T10:12:11.927Z,98986.12
2017-10-29T10:14:38.635Z,98992.50
2017-10-29T10:17:05.318Z,99004.83
2017-10-29T10:19:31.073Z,99033.84
2017-10-29T10:21:57.748Z,99038.16
2017-10-29T10:24:23.560Z,99035.52
2017-10-29T10:26:50.225Z,99052.28
2017-10-29T10:29:16.957Z,99059.94
2017-10-29T10:31:42.724Z,99078.27
2017-10-29T10:34:08.490Z,99080.30
2017-10-29T10:36:34.240Z,99087.88
2017-10-29T10:39:01.022Z,99092.98
2017-10-29T10:41:26.820Z,99106.66
2017-10-29T10:43:53.636Z,99108.05
2017-10-29T10:46:19.402Z,99121.33
2017-10-29T10:48:45.188Z,99133.76
2017-10-29T10:51:10.947Z,99135.56
2017-10-29T10:53:37.704Z,99134.96
2017-10-29T10:56:03.456Z,99155.48
2017-10-29T10:58:29.929Z,99151.86
2017-10-29T11:00:55.677Z,99166.57
2017-10-29T11:03:21.448Z,99174.91
2017-10-29T11:05:47.242Z,99189.87
2017-10-29T11:08:13.891Z,99191.70
2017-10-29T11:10:39.636Z,99215.75
2017-10-29T11:13:05.395Z,99220.95
2017-10-29T11:15:31.153Z,99221.13
2017-10-29T11:17:57.756Z,99241.61
2017-10-29T11:20:23.548Z,99245.34
2017-10-29T11:22:49.425Z,99269.55
2017-10-29T11:25:15.177Z,99283.48
2017-10-29T11:27:41.063Z,99294.46
2017-10-29T11:30:06.822Z,99302.00
2017-10-29T11:32:32.573Z,99323.20
2017-10-29T11:34:58.770Z,99332.34
2017-10-29T11:37:24.525Z,99334.83
2017-10-29T11:39:50.864Z,99350.45
2017-10-29T11:42:16.613Z,99350.32
2017-10-29T11:44:42.449Z,99349.97
2017-10-29T11:47:08.195Z,99350.83
2017-10-29T11:49:33.987Z,99367.87
2017-10-29T11:51:59.755Z,99370.59
2017-10-29T11:54:25.496Z,99387.86
2017-10-29T11:56:51.275Z,99406.42
2017-10-29T11:59:18.084Z,99414.95
2017-10-29T12:01:43.847Z,99422.42
2017-10-29T12:04:09.592Z,99428.96
2017-10-29T12:06:35.331Z,99423.08
2017-10-29T12:09:01.131Z,99436.81
2017-10-29T12:11:26.907Z,99444.14
2017-10-29T12:13:52.659Z,99457.55
2017-10-29T12:16:18.448Z,99469.69
2017-10-29T12:18:45.025Z,99483.30
2017-10-29T12:21:10.898Z,99494.41
2017-10-29T12:23:37.759Z,99513.50
2017-10-29T12:26:03.534Z,99515.95
2017-10-29T12:28:30.300Z,99523.34
2017-10-29T12:30:57.072Z,99533.52
2017-10-29T12:33:22.904Z,99543.16
2017-10-29T12:35:48.655Z,99551.25
2017-10-29T12:38:14.455Z,99553.02
2017-10-29T12:40:40.363Z,99568.03
2017-10-29T12:43:06.238Z,99582.85
2017-10-29T12:45:32.909Z,99595.61
2017-10-29T12:47:58.708Z,99610.82
2017-10-29T12:50:25.318Z,99627.68
2017-10-29T12:52:51.087Z,99637.70
2017-10-29T12:55:17.774Z,99654.34
2017-10-29T12:57:44.316Z,99666.52
2017-10-29T13:00:10.887Z,99676.62
2017-10-29T13:02:36.635Z,99683.78
2017-10-29T13:05:02.455Z,99654.73
2017-10-29T13:07:29.215Z,99624.05
2017-10-29T13:09:55.013Z,99607.81
2017-10-29T13:12:20.767Z,99623.30
2017-10-29T13:14:47.375Z,99634.30
2017-10-29T13:17:14.076Z,99645.67
2017-10-29T13:19:39.819Z,99642.71
2017-10-29T13:22:05.615Z,99657.98
2017-10-29T13:24:32.346Z,99663.53
2017-10-29T13:26:58.096Z,99660.47
2017-10-29T13:29:24.697Z,99665.67
2017-10-29T13:31:50.463Z,99675.69
2017-10-29T13:34:16.248Z,99682.02
2017-10-29T13:36:41.987Z,99687.50
2017-10-29T13:39:08.692Z,99698.30
2017-10-29T13:41:34.437Z,99709.41
2017-10-29T13:44:00.189Z,99721.41
2017-10-29T13:46:25.945Z,99714.17
2017-10-29T13:48:52.195Z,99720.58
2017-10-29T13:51:18.852Z,99733.91
2017-10-29T13:53:44.592Z,99736.45
2017-10-29T13:56:10.345Z,99739.20
2017-10-29T13:58:36.224Z,99749.42
2017-10-29T14:01:02.004Z,99754.91
2017-10-29T14:03:27.875Z,99756.45
2017-10-29T14:05:54.568Z,99776.05
2017-10-29T14:08:21.400Z,99780.63
2017-10-29T14:10:47.149Z,99790.33
2017-10-29T14:13:12.896Z,99800.45
2017-10-29T14:15:38.675Z,99791.23
2017-10-29T14:18:05.269Z,99792.97
2017-10-29T14:20:31.028Z,99794.06
2017-10-29T14:22:56.839Z,99798.94
2017-10-29T14:25:22.584Z,99792.72
2017-10-29T14:27:49.324Z,99797.97
2017-10-29T14:30:15.602Z,99797.02
2017-10-29T14:32:41.367Z,99804.42
2017-10-29T14:35:07.168Z,99811.84
2017-10-29T14:37:32.924Z,99813.22
2017-10-29T14:39:59.536Z,99823.34
2017-10-29T14:42:25.284Z,99825.34
2017-10-29T14:44:52.122Z,99840.19
2017-10-29T14:47:17.905Z,99840.59
2017-10-29T14:49:44.919Z,99842.93
2017-10-29T14:52:10.720Z,99846.97
2017-10-29T14:54:37.415Z,99859.93
2017-10-29T14:57:04.105Z,99851.96
2017-10-29T14:59:30.132Z,99852.50
2017-10-29T15:01:55.875Z,99855.23
2017-10-29T15:04:21.629Z,99858.19
2017-10-29T15:06:47.376Z,99861.44
2017-10-29T15:09:13.126Z,99867.16
2017-10-29T15:11:38.895Z,99865.73
2017-10-29T15:14:04.825Z,99872.42
2017-10-29T15:16:30.590Z,99877.01
2017-10-29T15:18:56.346Z,99887.48
2017-10-29T15:21:22.181Z,99886.02
2017-10-29T15:23:48.647Z,99889.77
2017-10-29T15:26:14.592Z,99891.33
2017-10-29T15:28:40.346Z,99900.15
2017-10-29T15:31:06.118Z,99912.63
2017-10-29T15:33:31.872Z,99920.37
2017-10-29T15:35:57.620Z,99925.03
2017-10-29T15:38:23.427Z,99928.93
2017-10-29T15:40:49.201Z,99936.08
2017-10-29T15:43:14.952Z,99950.41
2017-10-29T15:45:40.752Z,99961.34
2017-10-29T15:48:06.511Z,99976.34
2017-10-29T15:50:32.264Z,99979.81
2017-10-29T15:52:58.038Z,99987.02
2017-10-29T15:55:24.644Z,99982.34
2017-10-29T15:57:51.235Z,99991.77
2017-10-29T16:00:19.561Z,99996.32
2017-10-29T16:02:46.259Z,99995.63
2017-10-29T16:05:13.046Z,100001.05
2017-10-29T16:07:38.820Z,100006.16
2017-10-29T16:10:04.569Z,100012.88
2017-10-29T16:12:30.450Z,100017.16
2017-10-29T16:14:56.200Z,100012.92
2017-10-29T16:17:22.010Z,100023.84
2017-10-29T16:19:47.776Z,100033.17
2017-10-29T16:22:13.516Z,100037.77
2017-10-29T16:24:39.345Z,100051.69
2017-10-29T16:27:05.118Z,100060.09
2017-10-29T16:29:30.880Z,100051.17
2017-10-29T16:31:56.640Z,100068.70
2017-10-29T16:34:22.492Z,100072.30
2017-10-29T16:36:49.088Z,100090.05
2017-10-29T16:39:15.267Z,100085.42
2017-10-29T16:41:41.027Z,100086.20
2017-10-29T16:44:07.709Z,100090.80
2017-10-29T16:46:34.309Z,100092.88
2017-10-29T16:49:01.057Z,100090.76
2017-10-29T16:51:26.856Z,100083.95
2017-10-29T16:53:52.679Z,100092.63
2017-10-29T16:56:19.220Z,100103.69
2017-10-29T16:58:45.957Z,100109.97
2017-10-29T17:01:11.703Z,100115.83
2017-10-29T17:03:38.381Z,100120.00
2017-10-29T17:06:04.289Z,100131.30
2017-10-29T17:08:30.079Z,100130.20
2017-10-29T17:10:55.998Z,100142.55
2017-10-29T17:13:23.536Z,100150.98
2017-10-29T17:15:49.302Z,100153.70
2017-10-29T17:18:16.071Z,100157.28
2017-10-29T17:20:42.899Z,100172.28
2017-10-29T17:23:08.705Z,100176.07
2017-10-29T17:25:35.253Z,100182.84
2017-10-29T17:28:01.004Z,100178.52
2017-10-29T17:30:26.757Z,100185.06
2017-10-29T17:32:52.550Z,100180.73
2017-10-29T17:35:18.353Z,100192.39
2017-10-29T17:37:44.117Z,100189.41
2017-10-29T17:40:09.878Z,100188.41
2017-10-29T17:42:35.640Z,100194.66
2017-10-29T17:45:01.388Z,100197.43
2017-10-29T17:47:27.177Z,100200.13
2017-10-29T17:49:52.952Z,100189.23
2017-10-29T17:52:19.680Z,100194.38
2017-10-29T17:54:45.478Z,100201.46
2017-10-29T17:57:11.296Z,100204.89
2017-10-29T17:59:38.088Z,100202.10
2017-10-29T18:02:04.924Z,100198.56
2017-10-29T18:04:31.467Z,100205.59
2017-10-29T18:06:59.773Z,100210.31
2017-10-29T18:09:26.595Z,100199.92
2017-10-29T18:11:53.222Z,100204.53
2017-10-29T18:14:21.579Z,100212.36
2017-10-29T18:16:47.625Z,100218.09
2017-10-29T18:19:13.436Z,100209.70
2017-10-29T18:21:44.983Z,100225.03
2017-10-29T18:24:14.593Z,100223.17
2017-10-29T18:26:40.572Z,100219.83
2017-10-29T18:29:06.371Z,100224.97
2017-10-29T18:31:33.117Z,100223.59
2017-10-29T18:33:59.265Z,100222.52
2017-10-29T18:36:25.084Z,100222.81
2017-10-29T18:38:50.864Z,100227.94
2017-10-29T18:41:17.505Z,100223.64
2017-10-29T18:43:43.679Z,100225.81
2017-10-29T18:46:09.484Z,100231.70
2017-10-29T18:48:35.316Z,100234.13
2017-10-29T18:51:01.136Z,100241.13
2017-10-29T18:53:29.067Z,100254.65
2017-10-29T18:55:54.987Z,100252.45
2017-10-29T18:58:24.770Z,100255.95
2017-10-29T19:00:50.548Z,100263.06
2017-10-29T19:03:16.439Z,100270.66
2017-10-29T19:05:42.216Z,100267.60
2017-10-29T19:08:09.124Z,100268.27
2017-10-29T19:10:34.896Z,100272.80
2017-10-29T19:13:00.669Z,100271.70
2017-10-29T19:15:26.483Z,100275.89
2017-10-29T19:17:52.272Z,100274.26
2017-10-29T19:20:18.036Z,100275.38
2017-10-29T19:22:43.842Z,100280.93
2017-10-29T19:25:10.625Z,100283.55
2017-10-29T19:27:36.427Z,100288.15
2017-10-29T19:30:02.224Z,100290.12
2017-10-29T19:32:28.974Z,100292.79
2017-10-29T19:34:55.806Z,100293.51
2017-10-29T19:37:21.589Z,100300.53
2017-10-29T19:39:47.378Z,100307.05
2017-10-29T19:42:13.182Z,100314.73
2017-10-29T19:44:39.035Z,100324.49
2017-10-29T19:47:04.846Z,100327.81
2017-10-29T19:49:31.582Z,100332.45
2017-10-29T19:51:58.368Z,100335.76
2017-10-29T19:54:24.162Z,100339.61
2017-10-29T19:56:49.952Z,100339.85
2017-10-29T19:59:15.721Z,100347.11
2017-10-29T20:01:41.500Z,100354.33
2017-10-29T20:04:07.272Z,100354.20
2017-10-29T20:06:33.077Z,100358.65
2017-10-29T20:08:58.847Z,100351.05
2017-10-29T20:11:24.667Z,100357.19
2017-10-29T20:13:51.960Z,100351.80
2017-10-29T20:16:18.666Z,100355.00
2017-10-29T20:18:45.518Z,100369.17
2017-10-29T20:21:12.198Z,100364.50
2017-10-29T20:23:38.906Z,100363.87
2017-10-29T20:26:04.719Z,100368.23
2017-10-29T20:28:30.525Z,100368.64
2017-10-29T20:30:57.214Z,100379.88
2017-10-29T20:33:22.985Z,100382.63
2017-10-29T20:35:48.789Z,100387.92
2017-10-29T20:38:14.571Z,100385.77
2017-10-29T20:40:40.381Z,100390.33
2017-10-29T20:43:06.162Z,100391.83
2017-10-29T20:45:32.981Z,100392.79
2017-10-29T20:47:58.808Z,100393.98
2017-10-29T20:50:24.604Z,100392.53
2017-10-29T20:52:52.145Z,100394.98
2017-10-29T20:55:18.818Z,100398.05
2017-10-29T20:57:45.577Z,100407.59
2017-10-29T21:00:12.344Z,100406.22
2017-10-29T21:02:38.143Z,100406.98
2017-10-29T21:05:04.910Z,100408.18
2017-10-29T21:07:30.744Z,100412.70
2017-10-29T21:09:56.529Z,100415.27
2017-10-29T21:12:22.338Z,100417.12
2017-10-29T21:14:49.169Z,100420.29
2017-10-29T21:17:14.981Z,100424.61
2017-10-29T21:19:41.786Z,100420.63
2017-10-29T21:22:07.626Z,100423.64
2017-10-29T21:24:33.424Z,100432.02
2017-10-29T21:27:00.020Z,100432.14
2017-10-29T21:29:25.806Z,100435.42
2017-10-29T21:31:52.619Z,100444.54
2017-10-29T21:34:18.396Z,100443.34
2017-10-29T21:36:44.172Z,100444.67
2017-10-29T21:39:09.995Z,100447.03
2017-10-29T21:41:36.715Z,100437.45
2017-10-29T21:44:02.488Z,100446.00
2017-10-29T21:46:29.293Z,100448.36
2017-10-29T21:48:55.066Z,100446.16
2017-10-29T21:51:20.877Z,100444.66
2017-10-29T21:53:46.651Z,100449.40
2017-10-29T21:56:13.409Z,100439.16
2017-10-29T21:58:40.163Z,100446.86
2017-10-29T22:01:06.872Z,100445.66
2017-10-29T22:03:33.597Z,100456.66
2017-10-29T22:06:00.307Z,100452.22
2017-10-29T22:08:29.096Z,100452.94
2017-10-29T22:10:54.872Z,100458.64
2017-10-29T22:13:20.655Z,100458.66
2017-10-29T22:15:47.292Z,100457.65
2017-10-29T22:18:13.873Z,100461.84
2017-10-29T22:20:40.610Z,100459.72
2017-10-29T22:23:07.388Z,100469.02
2017-10-29T22:25:33.196Z,100468.17
2017-10-29T22:27:59.868Z,100474.23
2017-10-29T22:30:27.535Z,100477.46
2017-10-29T22:32:54.340Z,100480.02
2017-10-29T22:35:20.126Z,100471.75
2017-10-29T22:37:45.885Z,100475.64
2017-10-29T22:40:12.464Z,100478.84
2017-10-29T22:42:38.277Z,100483.47
2017-10-29T22:45:04.069Z,100481.72
2017-10-29T22:47:30.641Z,100486.36
2017-10-29T22:49:58.132Z,100488.93
2017-10-29T22:52:23.938Z,100499.89
2017-10-29T22:54:49.718Z,100494.17
2017-10-29T22:57:16.718Z,100500.02
2017-10-29T22:59:42.494Z,100505.13
2017-10-29T23:02:08.252Z,100503.84
2017-10-29T23:04:34.027Z,100507.19
2017-10-29T23:07:05.915Z,100509.06
2017-10-29T23:09:31.676Z,100511.84
2017-10-29T23:11:57.489Z,100519.61
2017-10-29T23:14:23.282Z,100522.70
2017-10-29T23:16:49.092Z,100518.33
2017-10-29T23:19:15.844Z,100521.48
2017-10-29T23:21:41.626Z,100521.70
2017-10-29T23:24:07.392Z,100531.97
2017-10-29T23:26:33.808Z,100533.95
2017-10-29T23:28:59.573Z,100531.31
2017-10-29T23:31:25.345Z,100533.53
2017-10-29T23:33:51.143Z,100530.36
2017-10-29T23:36:16.913Z,100529.03
2017-10-29T23:38:42.717Z,100534.89
2017-10-29T23:41:08.483Z,100533.80
2017-10-29T23:43:34.269Z,100531.25
2017-10-29T23:46:00.792Z,100539.65
2017-10-29T23:48:26.585Z,100543.66
2017-10-29T23:50:52.345Z,100548.19
2017-10-29T23:53:18.163Z,100546.91
2017-10-29T23:55:43.923Z,100547.28
2017-10-29T23:58:09.678Z,100547.52
